sensor_id;sensor_type;location;lat;lon;timestamp;P1;durP1;ratioP1;P2;durP2;ratioP2
13651;SDS011;6899;51.546;6.912;2023-02-19T00:00:57;56.05;;;31.10;;
13651;SDS011;6899;51.546;6.912;2023-02-19T00:03:26;60.28;;;32.08;;
13651;SDS011;6899;51.546;6.912;2023-02-19T00:05:53;62.35;;;32.15;;
13651;SDS011;6899;51.546;6.912;2023-02-19T00:08:19;64.07;;;33.55;;
13651;SDS011;6899;51.546;6.912;2023-02-19T00:10:46;63.45;;;31.58;;
13651;SDS011;6899;51.546;6.912;2023-02-19T00:13:13;68.35;;;34.17;;
13651;SDS011;6899;51.546;6.912;2023-02-19T00:15:40;58.53;;;33.05;;
13651;SDS011;6899;51.546;6.912;2023-02-19T00:18:07;64.43;;;33.28;;
13651;SDS011;6899;51.546;6.912;2023-02-19T00:20:35;64.95;;;34.50;;
13651;SDS011;6899;51.546;6.912;2023-02-19T00:23:02;67.50;;;35.15;;
13651;SDS011;6899;51.546;6.912;2023-02-19T00:25:29;62.53;;;34.72;;
13651;SDS011;6899;51.546;6.912;2023-02-19T00:27:55;70.05;;;34.80;;
13651;SDS011;6899;51.546;6.912;2023-02-19T00:30:22;74.93;;;35.67;;
13651;SDS011;6899;51.546;6.912;2023-02-19T00:32:49;63.38;;;34.40;;
13651;SDS011;6899;51.546;6.912;2023-02-19T00:35:20;61.58;;;33.13;;
13651;SDS011;6899;51.546;6.912;2023-02-19T00:37:48;60.63;;;35.30;;
13651;SDS011;6899;51.546;6.912;2023-02-19T00:40:15;59.50;;;32.20;;
13651;SDS011;6899;51.546;6.912;2023-02-19T00:42:42;55.60;;;31.55;;
13651;SDS011;6899;51.546;6.912;2023-02-19T00:45:08;60.88;;;32.03;;
13651;SDS011;6899;51.546;6.912;2023-02-19T00:47:35;63.05;;;33.25;;
13651;SDS011;6899;51.546;6.912;2023-02-19T00:50:02;58.42;;;32.88;;
13651;SDS011;6899;51.546;6.912;2023-02-19T00:52:29;53.72;;;28.83;;
13651;SDS011;6899;51.546;6.912;2023-02-19T00:54:58;49.03;;;28.40;;
13651;SDS011;6899;51.546;6.912;2023-02-19T00:57:27;47.67;;;27.35;;
13651;SDS011;6899;51.546;6.912;2023-02-19T00:59:54;49.55;;;26.35;;
13651;SDS011;6899;51.546;6.912;2023-02-19T01:02:21;47.35;;;26.75;;
13651;SDS011;6899;51.546;6.912;2023-02-19T01:04:48;49.80;;;28.05;;
13651;SDS011;6899;51.546;6.912;2023-02-19T01:07:15;52.65;;;28.00;;
13651;SDS011;6899;51.546;6.912;2023-02-19T01:09:42;46.92;;;26.13;;
13651;SDS011;6899;51.546;6.912;2023-02-19T01:12:10;47.20;;;27.33;;
13651;SDS011;6899;51.546;6.912;2023-02-19T01:14:36;46.50;;;26.80;;
13651;SDS011;6899;51.546;6.912;2023-02-19T01:17:03;52.05;;;28.88;;
13651;SDS011;6899;51.546;6.912;2023-02-19T01:19:30;51.08;;;27.48;;
13651;SDS011;6899;51.546;6.912;2023-02-19T01:21:57;45.85;;;26.60;;
13651;SDS011;6899;51.546;6.912;2023-02-19T01:24:24;51.67;;;27.88;;
13651;SDS011;6899;51.546;6.912;2023-02-19T01:26:51;50.78;;;27.83;;
13651;SDS011;6899;51.546;6.912;2023-02-19T01:29:19;54.35;;;26.50;;
13651;SDS011;6899;51.546;6.912;2023-02-19T01:31:45;60.22;;;29.73;;
13651;SDS011;6899;51.546;6.912;2023-02-19T01:34:13;50.85;;;28.10;;
13651;SDS011;6899;51.546;6.912;2023-02-19T01:36:40;51.38;;;28.52;;
13651;SDS011;6899;51.546;6.912;2023-02-19T01:39:06;53.00;;;28.85;;
13651;SDS011;6899;51.546;6.912;2023-02-19T01:41:34;55.65;;;29.35;;
13651;SDS011;6899;51.546;6.912;2023-02-19T01:44:04;53.42;;;26.63;;
13651;SDS011;6899;51.546;6.912;2023-02-19T01:46:34;53.13;;;27.65;;
13651;SDS011;6899;51.546;6.912;2023-02-19T01:49:03;58.92;;;30.80;;
13651;SDS011;6899;51.546;6.912;2023-02-19T01:51:33;57.22;;;29.17;;
13651;SDS011;6899;51.546;6.912;2023-02-19T01:54:04;52.38;;;27.63;;
13651;SDS011;6899;51.546;6.912;2023-02-19T01:56:33;53.08;;;28.08;;
13651;SDS011;6899;51.546;6.912;2023-02-19T01:59:03;52.80;;;26.13;;
13651;SDS011;6899;51.546;6.912;2023-02-19T02:01:34;50.90;;;24.98;;
13651;SDS011;6899;51.546;6.912;2023-02-19T02:04:02;48.17;;;26.65;;
13651;SDS011;6899;51.546;6.912;2023-02-19T02:06:32;51.50;;;26.38;;
13651;SDS011;6899;51.546;6.912;2023-02-19T02:09:02;54.17;;;25.90;;
13651;SDS011;6899;51.546;6.912;2023-02-19T02:11:48;49.03;;;26.05;;
13651;SDS011;6899;51.546;6.912;2023-02-19T02:14:16;49.38;;;26.10;;
13651;SDS011;6899;51.546;6.912;2023-02-19T02:16:50;58.90;;;27.98;;
13651;SDS011;6899;51.546;6.912;2023-02-19T02:19:29;51.92;;;27.38;;
13651;SDS011;6899;51.546;6.912;2023-02-19T02:22:09;54.42;;;27.30;;
13651;SDS011;6899;51.546;6.912;2023-02-19T02:24:51;52.47;;;27.63;;
13651;SDS011;6899;51.546;6.912;2023-02-19T02:27:28;54.00;;;27.63;;
13651;SDS011;6899;51.546;6.912;2023-02-19T02:32:58;55.47;;;26.73;;
13651;SDS011;6899;51.546;6.912;2023-02-19T02:35:31;57.72;;;27.65;;
13651;SDS011;6899;51.546;6.912;2023-02-19T02:38:03;63.35;;;28.70;;
13651;SDS011;6899;51.546;6.912;2023-02-19T02:40:35;63.30;;;28.63;;
13651;SDS011;6899;51.546;6.912;2023-02-19T02:43:05;56.30;;;29.38;;
13651;SDS011;6899;51.546;6.912;2023-02-19T02:45:33;60.75;;;28.38;;
13651;SDS011;6899;51.546;6.912;2023-02-19T02:47:59;63.60;;;31.17;;
13651;SDS011;6899;51.546;6.912;2023-02-19T02:50:30;62.88;;;29.35;;
13651;SDS011;6899;51.546;6.912;2023-02-19T02:53:02;63.90;;;29.55;;
13651;SDS011;6899;51.546;6.912;2023-02-19T02:55:59;58.97;;;29.40;;
13651;SDS011;6899;51.546;6.912;2023-02-19T02:58:27;64.68;;;29.88;;
13651;SDS011;6899;51.546;6.912;2023-02-19T03:00:58;56.55;;;28.13;;
13651;SDS011;6899;51.546;6.912;2023-02-19T03:03:53;58.65;;;27.92;;
13651;SDS011;6899;51.546;6.912;2023-02-19T03:06:27;57.38;;;28.70;;
13651;SDS011;6899;51.546;6.912;2023-02-19T03:08:58;56.45;;;28.50;;
13651;SDS011;6899;51.546;6.912;2023-02-19T03:11:31;58.47;;;27.63;;
13651;SDS011;6899;51.546;6.912;2023-02-19T03:14:26;60.67;;;28.63;;
13651;SDS011;6899;51.546;6.912;2023-02-19T03:17:26;61.35;;;27.58;;
13651;SDS011;6899;51.546;6.912;2023-02-19T03:20:17;51.08;;;25.80;;
13651;SDS011;6899;51.546;6.912;2023-02-19T03:22:48;54.22;;;25.85;;
13651;SDS011;6899;51.546;6.912;2023-02-19T03:25:18;53.38;;;24.73;;
13651;SDS011;6899;51.546;6.912;2023-02-19T03:28:05;53.28;;;27.38;;
13651;SDS011;6899;51.546;6.912;2023-02-19T03:30:36;50.80;;;23.60;;
13651;SDS011;6899;51.546;6.912;2023-02-19T03:33:08;47.53;;;25.98;;
13651;SDS011;6899;51.546;6.912;2023-02-19T03:35:39;47.50;;;25.55;;
13651;SDS011;6899;51.546;6.912;2023-02-19T03:38:09;48.13;;;23.58;;
13651;SDS011;6899;51.546;6.912;2023-02-19T03:40:43;46.45;;;22.20;;
13651;SDS011;6899;51.546;6.912;2023-02-19T03:43:17;43.45;;;23.23;;
13651;SDS011;6899;51.546;6.912;2023-02-19T03:45:48;42.28;;;21.83;;
13651;SDS011;6899;51.546;6.912;2023-02-19T03:48:24;42.13;;;22.23;;
13651;SDS011;6899;51.546;6.912;2023-02-19T03:51:03;51.50;;;23.83;;
13651;SDS011;6899;51.546;6.912;2023-02-19T03:53:42;45.63;;;20.92;;
13651;SDS011;6899;51.546;6.912;2023-02-19T03:56:18;47.85;;;22.27;;
13651;SDS011;6899;51.546;6.912;2023-02-19T03:58:55;49.13;;;22.45;;
13651;SDS011;6899;51.546;6.912;2023-02-19T04:01:29;47.33;;;22.33;;
13651;SDS011;6899;51.546;6.912;2023-02-19T04:04:05;55.53;;;22.80;;
13651;SDS011;6899;51.546;6.912;2023-02-19T04:06:38;40.35;;;20.98;;
13651;SDS011;6899;51.546;6.912;2023-02-19T04:09:07;45.28;;;22.05;;
13651;SDS011;6899;51.546;6.912;2023-02-19T04:11:36;45.35;;;21.27;;
13651;SDS011;6899;51.546;6.912;2023-02-19T04:14:05;44.38;;;21.27;;
13651;SDS011;6899;51.546;6.912;2023-02-19T04:16:35;44.63;;;20.58;;
13651;SDS011;6899;51.546;6.912;2023-02-19T04:19:07;49.45;;;22.63;;
13651;SDS011;6899;51.546;6.912;2023-02-19T04:21:37;45.05;;;22.58;;
13651;SDS011;6899;51.546;6.912;2023-02-19T04:24:07;48.65;;;22.50;;
13651;SDS011;6899;51.546;6.912;2023-02-19T04:26:37;46.13;;;21.52;;
13651;SDS011;6899;51.546;6.912;2023-02-19T04:29:09;39.80;;;21.48;;
13651;SDS011;6899;51.546;6.912;2023-02-19T04:31:39;44.88;;;22.55;;
13651;SDS011;6899;51.546;6.912;2023-02-19T04:34:07;47.40;;;22.30;;
13651;SDS011;6899;51.546;6.912;2023-02-19T04:36:34;46.13;;;22.88;;
13651;SDS011;6899;51.546;6.912;2023-02-19T04:39:01;45.40;;;21.27;;
13651;SDS011;6899;51.546;6.912;2023-02-19T04:41:32;38.75;;;22.80;;
13651;SDS011;6899;51.546;6.912;2023-02-19T04:43:59;40.92;;;22.10;;
13651;SDS011;6899;51.546;6.912;2023-02-19T04:46:26;40.40;;;21.67;;
13651;SDS011;6899;51.546;6.912;2023-02-19T04:48:52;46.38;;;21.77;;
13651;SDS011;6899;51.546;6.912;2023-02-19T04:51:29;44.08;;;20.63;;
13651;SDS011;6899;51.546;6.912;2023-02-19T04:53:56;46.22;;;21.20;;
13651;SDS011;6899;51.546;6.912;2023-02-19T04:56:23;42.17;;;21.77;;
13651;SDS011;6899;51.546;6.912;2023-02-19T04:58:50;41.97;;;22.15;;
13651;SDS011;6899;51.546;6.912;2023-02-19T05:01:17;42.08;;;21.50;;
13651;SDS011;6899;51.546;6.912;2023-02-19T05:03:43;42.17;;;23.13;;
13651;SDS011;6899;51.546;6.912;2023-02-19T05:06:11;43.25;;;23.50;;
13651;SDS011;6899;51.546;6.912;2023-02-19T05:08:40;43.03;;;21.73;;
13651;SDS011;6899;51.546;6.912;2023-02-19T05:11:07;39.67;;;23.00;;
13651;SDS011;6899;51.546;6.912;2023-02-19T05:13:36;46.47;;;22.52;;
13651;SDS011;6899;51.546;6.912;2023-02-19T05:16:04;43.80;;;22.02;;
13651;SDS011;6899;51.546;6.912;2023-02-19T05:18:33;42.83;;;22.45;;
13651;SDS011;6899;51.546;6.912;2023-02-19T05:21:00;42.08;;;23.02;;
13651;SDS011;6899;51.546;6.912;2023-02-19T05:23:27;45.35;;;23.55;;
13651;SDS011;6899;51.546;6.912;2023-02-19T05:25:55;43.95;;;22.35;;
13651;SDS011;6899;51.546;6.912;2023-02-19T05:28:25;45.35;;;21.73;;
13651;SDS011;6899;51.546;6.912;2023-02-19T05:30:53;48.53;;;23.05;;
13651;SDS011;6899;51.546;6.912;2023-02-19T05:33:22;41.60;;;22.42;;
13651;SDS011;6899;51.546;6.912;2023-02-19T05:35:51;56.80;;;22.70;;
13651;SDS011;6899;51.546;6.912;2023-02-19T05:38:20;41.60;;;21.45;;
13651;SDS011;6899;51.546;6.912;2023-02-19T05:40:48;51.00;;;22.33;;
13651;SDS011;6899;51.546;6.912;2023-02-19T05:43:19;46.25;;;22.80;;
13651;SDS011;6899;51.546;6.912;2023-02-19T05:45:47;41.30;;;20.85;;
13651;SDS011;6899;51.546;6.912;2023-02-19T05:48:14;46.45;;;22.90;;
13651;SDS011;6899;51.546;6.912;2023-02-19T05:50:43;45.50;;;21.60;;
13651;SDS011;6899;51.546;6.912;2023-02-19T05:53:10;41.08;;;21.58;;
13651;SDS011;6899;51.546;6.912;2023-02-19T05:55:37;40.97;;;20.23;;
13651;SDS011;6899;51.546;6.912;2023-02-19T05:58:04;40.97;;;20.63;;
13651;SDS011;6899;51.546;6.912;2023-02-19T06:00:33;41.30;;;20.65;;
13651;SDS011;6899;51.546;6.912;2023-02-19T06:03:00;42.15;;;20.65;;
13651;SDS011;6899;51.546;6.912;2023-02-19T06:05:30;35.05;;;19.85;;
13651;SDS011;6899;51.546;6.912;2023-02-19T06:08:00;44.33;;;21.02;;
13651;SDS011;6899;51.546;6.912;2023-02-19T06:10:35;31.27;;;18.77;;
13651;SDS011;6899;51.546;6.912;2023-02-19T06:13:05;35.63;;;18.42;;
13651;SDS011;6899;51.546;6.912;2023-02-19T06:15:36;34.72;;;18.30;;
13651;SDS011;6899;51.546;6.912;2023-02-19T06:18:06;36.95;;;18.00;;
13651;SDS011;6899;51.546;6.912;2023-02-19T06:20:35;37.80;;;18.50;;
13651;SDS011;6899;51.546;6.912;2023-02-19T06:23:02;36.15;;;19.10;;
13651;SDS011;6899;51.546;6.912;2023-02-19T06:25:29;37.63;;;19.85;;
13651;SDS011;6899;51.546;6.912;2023-02-19T06:27:56;39.28;;;21.23;;
13651;SDS011;6899;51.546;6.912;2023-02-19T06:30:22;36.15;;;20.20;;
13651;SDS011;6899;51.546;6.912;2023-02-19T06:32:54;33.95;;;18.95;;
13651;SDS011;6899;51.546;6.912;2023-02-19T06:35:21;37.17;;;19.35;;
13651;SDS011;6899;51.546;6.912;2023-02-19T06:37:48;37.55;;;20.27;;
13651;SDS011;6899;51.546;6.912;2023-02-19T06:40:15;34.92;;;19.95;;
13651;SDS011;6899;51.546;6.912;2023-02-19T06:42:43;40.67;;;19.88;;
13651;SDS011;6899;51.546;6.912;2023-02-19T06:45:13;31.55;;;19.50;;
13651;SDS011;6899;51.546;6.912;2023-02-19T06:47:40;37.72;;;20.23;;
13651;SDS011;6899;51.546;6.912;2023-02-19T06:50:08;37.22;;;21.67;;
13651;SDS011;6899;51.546;6.912;2023-02-19T06:52:35;40.42;;;20.85;;
13651;SDS011;6899;51.546;6.912;2023-02-19T06:55:05;35.30;;;20.02;;
13651;SDS011;6899;51.546;6.912;2023-02-19T06:57:32;38.22;;;19.65;;
13651;SDS011;6899;51.546;6.912;2023-02-19T07:00:05;39.38;;;21.10;;
13651;SDS011;6899;51.546;6.912;2023-02-19T07:02:35;34.92;;;20.35;;
13651;SDS011;6899;51.546;6.912;2023-02-19T07:05:03;40.05;;;19.65;;
13651;SDS011;6899;51.546;6.912;2023-02-19T07:07:31;36.03;;;19.23;;
13651;SDS011;6899;51.546;6.912;2023-02-19T07:09:58;30.92;;;18.65;;
13651;SDS011;6899;51.546;6.912;2023-02-19T07:12:25;34.55;;;18.05;;
13651;SDS011;6899;51.546;6.912;2023-02-19T07:14:52;30.90;;;17.60;;
13651;SDS011;6899;51.546;6.912;2023-02-19T07:17:19;34.22;;;18.15;;
13651;SDS011;6899;51.546;6.912;2023-02-19T07:19:46;30.20;;;17.75;;
13651;SDS011;6899;51.546;6.912;2023-02-19T07:24:59;31.55;;;15.65;;
13651;SDS011;6899;51.546;6.912;2023-02-19T07:27:26;31.92;;;15.80;;
13651;SDS011;6899;51.546;6.912;2023-02-19T07:30:03;31.00;;;17.35;;
13651;SDS011;6899;51.546;6.912;2023-02-19T07:32:30;30.20;;;16.83;;
13651;SDS011;6899;51.546;6.912;2023-02-19T07:34:57;32.03;;;16.20;;
13651;SDS011;6899;51.546;6.912;2023-02-19T07:37:27;30.23;;;16.10;;
13651;SDS011;6899;51.546;6.912;2023-02-19T07:39:56;28.17;;;15.88;;
13651;SDS011;6899;51.546;6.912;2023-02-19T07:42:24;32.03;;;16.40;;
13651;SDS011;6899;51.546;6.912;2023-02-19T07:44:51;31.15;;;15.77;;
13651;SDS011;6899;51.546;6.912;2023-02-19T07:47:18;28.58;;;14.98;;
13651;SDS011;6899;51.546;6.912;2023-02-19T07:49:45;31.80;;;15.27;;
13651;SDS011;6899;51.546;6.912;2023-02-19T07:52:12;27.60;;;15.18;;
13651;SDS011;6899;51.546;6.912;2023-02-19T07:54:42;27.33;;;13.75;;
13651;SDS011;6899;51.546;6.912;2023-02-19T07:57:09;31.05;;;14.82;;
13651;SDS011;6899;51.546;6.912;2023-02-19T07:59:39;25.85;;;14.75;;
13651;SDS011;6899;51.546;6.912;2023-02-19T08:02:08;31.25;;;15.25;;
13651;SDS011;6899;51.546;6.912;2023-02-19T08:04:59;30.52;;;15.18;;
13651;SDS011;6899;51.546;6.912;2023-02-19T08:07:29;32.42;;;15.13;;
13651;SDS011;6899;51.546;6.912;2023-02-19T08:09:56;29.00;;;16.30;;
13651;SDS011;6899;51.546;6.912;2023-02-19T08:12:53;28.73;;;16.45;;
13651;SDS011;6899;51.546;6.912;2023-02-19T08:15:40;35.88;;;16.30;;
13651;SDS011;6899;51.546;6.912;2023-02-19T08:18:06;34.63;;;17.30;;
13651;SDS011;6899;51.546;6.912;2023-02-19T08:20:34;27.33;;;15.40;;
13651;SDS011;6899;51.546;6.912;2023-02-19T08:23:01;37.45;;;17.67;;
13651;SDS011;6899;51.546;6.912;2023-02-19T08:25:29;33.17;;;16.77;;
13651;SDS011;6899;51.546;6.912;2023-02-19T08:27:56;34.75;;;16.02;;
13651;SDS011;6899;51.546;6.912;2023-02-19T08:30:24;36.08;;;17.50;;
13651;SDS011;6899;51.546;6.912;2023-02-19T08:32:53;41.33;;;17.80;;
13651;SDS011;6899;51.546;6.912;2023-02-19T08:35:22;36.65;;;15.77;;
13651;SDS011;6899;51.546;6.912;2023-02-19T08:37:49;33.78;;;16.10;;
13651;SDS011;6899;51.546;6.912;2023-02-19T08:40:16;36.95;;;15.90;;
13651;SDS011;6899;51.546;6.912;2023-02-19T08:42:43;30.48;;;15.70;;
13651;SDS011;6899;51.546;6.912;2023-02-19T08:45:09;25.45;;;14.07;;
13651;SDS011;6899;51.546;6.912;2023-02-19T08:47:39;30.95;;;15.40;;
13651;SDS011;6899;51.546;6.912;2023-02-19T08:50:10;29.67;;;13.75;;
13651;SDS011;6899;51.546;6.912;2023-02-19T08:52:37;29.95;;;14.77;;
13651;SDS011;6899;51.546;6.912;2023-02-19T08:55:04;29.70;;;13.15;;
13651;SDS011;6899;51.546;6.912;2023-02-19T08:57:34;29.17;;;15.02;;
13651;SDS011;6899;51.546;6.912;2023-02-19T09:00:05;27.58;;;13.88;;
13651;SDS011;6899;51.546;6.912;2023-02-19T09:02:34;22.17;;;13.15;;
13651;SDS011;6899;51.546;6.912;2023-02-19T09:05:01;23.38;;;14.18;;
13651;SDS011;6899;51.546;6.912;2023-02-19T09:07:33;22.88;;;13.20;;
13651;SDS011;6899;51.546;6.912;2023-02-19T09:10:00;27.98;;;13.80;;
13651;SDS011;6899;51.546;6.912;2023-02-19T09:12:29;27.45;;;13.45;;
13651;SDS011;6899;51.546;6.912;2023-02-19T09:14:57;25.80;;;12.52;;
13651;SDS011;6899;51.546;6.912;2023-02-19T09:17:24;22.83;;;10.82;;
13651;SDS011;6899;51.546;6.912;2023-02-19T09:19:51;25.35;;;12.10;;
13651;SDS011;6899;51.546;6.912;2023-02-19T09:22:20;22.77;;;11.52;;
13651;SDS011;6899;51.546;6.912;2023-02-19T09:24:48;20.67;;;11.10;;
13651;SDS011;6899;51.546;6.912;2023-02-19T09:27:16;26.65;;;12.32;;
13651;SDS011;6899;51.546;6.912;2023-02-19T09:29:46;24.35;;;10.20;;
13651;SDS011;6899;51.546;6.912;2023-02-19T09:32:13;18.00;;;9.68;;
13651;SDS011;6899;51.546;6.912;2023-02-19T09:34:40;16.92;;;8.98;;
13651;SDS011;6899;51.546;6.912;2023-02-19T09:37:09;15.93;;;9.20;;
13651;SDS011;6899;51.546;6.912;2023-02-19T09:39:36;14.43;;;8.32;;
13651;SDS011;6899;51.546;6.912;2023-02-19T09:42:08;15.32;;;9.40;;
13651;SDS011;6899;51.546;6.912;2023-02-19T09:44:40;13.73;;;8.50;;
13651;SDS011;6899;51.546;6.912;2023-02-19T09:47:12;16.67;;;9.02;;
13651;SDS011;6899;51.546;6.912;2023-02-19T09:49:43;14.18;;;9.35;;
13651;SDS011;6899;51.546;6.912;2023-02-19T09:52:17;16.45;;;9.32;;
13651;SDS011;6899;51.546;6.912;2023-02-19T09:54:49;14.52;;;8.93;;
13651;SDS011;6899;51.546;6.912;2023-02-19T09:57:23;21.10;;;10.25;;
13651;SDS011;6899;51.546;6.912;2023-02-19T09:59:55;19.25;;;11.15;;
13651;SDS011;6899;51.546;6.912;2023-02-19T10:02:29;15.32;;;8.25;;
13651;SDS011;6899;51.546;6.912;2023-02-19T10:05:05;16.67;;;8.80;;
13651;SDS011;6899;51.546;6.912;2023-02-19T10:07:46;13.70;;;7.88;;
13651;SDS011;6899;51.546;6.912;2023-02-19T10:10:18;15.75;;;7.97;;
13651;SDS011;6899;51.546;6.912;2023-02-19T10:12:53;12.68;;;6.97;;
13651;SDS011;6899;51.546;6.912;2023-02-19T10:15:27;13.82;;;6.93;;
13651;SDS011;6899;51.546;6.912;2023-02-19T10:17:57;12.82;;;7.25;;
13651;SDS011;6899;51.546;6.912;2023-02-19T10:20:24;12.55;;;6.43;;
13651;SDS011;6899;51.546;6.912;2023-02-19T10:22:56;11.15;;;5.65;;
13651;SDS011;6899;51.546;6.912;2023-02-19T10:25:25;9.98;;;6.28;;
13651;SDS011;6899;51.546;6.912;2023-02-19T10:27:54;11.45;;;5.97;;
13651;SDS011;6899;51.546;6.912;2023-02-19T10:30:24;10.48;;;5.85;;
13651;SDS011;6899;51.546;6.912;2023-02-19T10:32:58;13.15;;;5.82;;
13651;SDS011;6899;51.546;6.912;2023-02-19T10:35:27;12.48;;;5.68;;
13651;SDS011;6899;51.546;6.912;2023-02-19T10:37:55;11.98;;;5.70;;
13651;SDS011;6899;51.546;6.912;2023-02-19T10:40:24;9.60;;;5.10;;
13651;SDS011;6899;51.546;6.912;2023-02-19T10:42:55;15.32;;;6.35;;
13651;SDS011;6899;51.546;6.912;2023-02-19T10:45:24;10.40;;;5.70;;
13651;SDS011;6899;51.546;6.912;2023-02-19T10:47:58;8.07;;;5.35;;
13651;SDS011;6899;51.546;6.912;2023-02-19T10:50:26;8.57;;;5.47;;
13651;SDS011;6899;51.546;6.912;2023-02-19T10:52:56;10.23;;;5.72;;
13651;SDS011;6899;51.546;6.912;2023-02-19T10:55:25;12.52;;;5.47;;
13651;SDS011;6899;51.546;6.912;2023-02-19T10:57:57;14.05;;;8.07;;
13651;SDS011;6899;51.546;6.912;2023-02-19T11:00:45;10.57;;;4.47;;
13651;SDS011;6899;51.546;6.912;2023-02-19T11:03:16;9.73;;;5.05;;
13651;SDS011;6899;51.546;6.912;2023-02-19T11:05:49;10.50;;;4.30;;
13651;SDS011;6899;51.546;6.912;2023-02-19T11:08:21;11.25;;;4.80;;
13651;SDS011;6899;51.546;6.912;2023-02-19T11:10:49;8.35;;;4.72;;
13651;SDS011;6899;51.546;6.912;2023-02-19T11:13:23;6.93;;;3.88;;
13651;SDS011;6899;51.546;6.912;2023-02-19T11:15:58;8.40;;;3.80;;
13651;SDS011;6899;51.546;6.912;2023-02-19T11:18:26;6.13;;;3.88;;
13651;SDS011;6899;51.546;6.912;2023-02-19T11:20:56;7.75;;;4.22;;
13651;SDS011;6899;51.546;6.912;2023-02-19T11:23:25;6.68;;;4.07;;
13651;SDS011;6899;51.546;6.912;2023-02-19T11:25:55;6.75;;;4.78;;
13651;SDS011;6899;51.546;6.912;2023-02-19T11:28:29;6.38;;;4.00;;
13651;SDS011;6899;51.546;6.912;2023-02-19T11:31:20;9.77;;;3.80;;
13651;SDS011;6899;51.546;6.912;2023-02-19T11:33:53;5.47;;;3.92;;
13651;SDS011;6899;51.546;6.912;2023-02-19T11:36:26;6.13;;;4.30;;
13651;SDS011;6899;51.546;6.912;2023-02-19T11:38:55;6.00;;;4.25;;
13651;SDS011;6899;51.546;6.912;2023-02-19T11:41:29;4.95;;;3.92;;
13651;SDS011;6899;51.546;6.912;2023-02-19T11:44:22;7.80;;;4.35;;
13651;SDS011;6899;51.546;6.912;2023-02-19T11:47:04;7.38;;;4.35;;
13651;SDS011;6899;51.546;6.912;2023-02-19T11:49:53;5.78;;;4.00;;
13651;SDS011;6899;51.546;6.912;2023-02-19T11:52:29;6.07;;;4.82;;
13651;SDS011;6899;51.546;6.912;2023-02-19T11:55:04;8.02;;;4.22;;
13651;SDS011;6899;51.546;6.912;2023-02-19T11:57:39;7.55;;;4.85;;
13651;SDS011;6899;51.546;6.912;2023-02-19T12:00:14;8.07;;;5.15;;
13651;SDS011;6899;51.546;6.912;2023-02-19T12:03:00;9.13;;;4.53;;
13651;SDS011;6899;51.546;6.912;2023-02-19T12:05:57;6.07;;;4.25;;
13651;SDS011;6899;51.546;6.912;2023-02-19T12:08:46;5.53;;;4.00;;
13651;SDS011;6899;51.546;6.912;2023-02-19T12:11:39;7.07;;;4.18;;
13651;SDS011;6899;51.546;6.912;2023-02-19T12:14:50;9.80;;;4.32;;
13651;SDS011;6899;51.546;6.912;2023-02-19T12:27:24;6.97;;;4.75;;
13651;SDS011;6899;51.546;6.912;2023-02-19T12:33:45;8.90;;;4.38;;
13651;SDS011;6899;51.546;6.912;2023-02-19T12:36:32;8.13;;;5.18;;
13651;SDS011;6899;51.546;6.912;2023-02-19T12:39:18;9.02;;;4.18;;
13651;SDS011;6899;51.546;6.912;2023-02-19T12:42:02;6.88;;;4.43;;
13651;SDS011;6899;51.546;6.912;2023-02-19T12:44:40;13.80;;;4.75;;
13651;SDS011;6899;51.546;6.912;2023-02-19T12:47:18;10.90;;;4.60;;
13651;SDS011;6899;51.546;6.912;2023-02-19T12:49:50;7.88;;;4.10;;
13651;SDS011;6899;51.546;6.912;2023-02-19T12:52:30;7.05;;;4.97;;
13651;SDS011;6899;51.546;6.912;2023-02-19T12:55:08;6.57;;;3.92;;
13651;SDS011;6899;51.546;6.912;2023-02-19T12:57:50;6.28;;;3.85;;
13651;SDS011;6899;51.546;6.912;2023-02-19T13:00:28;10.30;;;5.00;;
13651;SDS011;6899;51.546;6.912;2023-02-19T13:03:08;13.85;;;6.68;;
13651;SDS011;6899;51.546;6.912;2023-02-19T13:05:53;6.93;;;4.68;;
13651;SDS011;6899;51.546;6.912;2023-02-19T13:08:41;8.40;;;4.28;;
13651;SDS011;6899;51.546;6.912;2023-02-19T13:11:47;13.23;;;3.85;;
13651;SDS011;6899;51.546;6.912;2023-02-19T13:17:34;4.28;;;3.40;;
13651;SDS011;6899;51.546;6.912;2023-02-19T13:20:13;7.82;;;3.63;;
13651;SDS011;6899;51.546;6.912;2023-02-19T13:22:57;4.25;;;3.10;;
13651;SDS011;6899;51.546;6.912;2023-02-19T13:25:51;5.07;;;3.13;;
13651;SDS011;6899;51.546;6.912;2023-02-19T13:28:39;4.18;;;2.88;;
13651;SDS011;6899;51.546;6.912;2023-02-19T13:31:27;9.07;;;4.43;;
13651;SDS011;6899;51.546;6.912;2023-02-19T13:34:21;5.40;;;3.45;;
13651;SDS011;6899;51.546;6.912;2023-02-19T13:37:05;5.47;;;3.35;;
13651;SDS011;6899;51.546;6.912;2023-02-19T13:40:16;6.68;;;3.95;;
13651;SDS011;6899;51.546;6.912;2023-02-19T13:42:57;4.93;;;3.47;;
13651;SDS011;6899;51.546;6.912;2023-02-19T13:45:57;6.50;;;3.75;;
13651;SDS011;6899;51.546;6.912;2023-02-19T13:48:31;6.28;;;3.58;;
13651;SDS011;6899;51.546;6.912;2023-02-19T13:54:26;8.93;;;3.80;;
13651;SDS011;6899;51.546;6.912;2023-02-19T13:57:29;8.00;;;4.13;;
13651;SDS011;6899;51.546;6.912;2023-02-19T14:00:21;10.15;;;3.70;;
13651;SDS011;6899;51.546;6.912;2023-02-19T14:06:15;7.90;;;4.38;;
13651;SDS011;6899;51.546;6.912;2023-02-19T14:18:58;6.50;;;4.55;;
13651;SDS011;6899;51.546;6.912;2023-02-19T14:21:57;8.63;;;4.63;;
13651;SDS011;6899;51.546;6.912;2023-02-19T14:25:29;12.07;;;5.10;;
13651;SDS011;6899;51.546;6.912;2023-02-19T14:27:38;7.85;;;4.88;;
13651;SDS011;6899;51.546;6.912;2023-02-19T14:30:24;8.95;;;5.43;;
13651;SDS011;6899;51.546;6.912;2023-02-19T14:36:39;8.70;;;6.32;;
13651;SDS011;6899;51.546;6.912;2023-02-19T14:39:16;13.27;;;6.88;;
13651;SDS011;6899;51.546;6.912;2023-02-19T14:42:18;8.30;;;6.07;;
13651;SDS011;6899;51.546;6.912;2023-02-19T14:45:11;8.48;;;6.20;;
13651;SDS011;6899;51.546;6.912;2023-02-19T14:47:53;9.07;;;6.60;;
13651;SDS011;6899;51.546;6.912;2023-02-19T14:53:30;7.85;;;6.10;;
13651;SDS011;6899;51.546;6.912;2023-02-19T14:56:53;8.23;;;6.07;;
13651;SDS011;6899;51.546;6.912;2023-02-19T14:59:22;9.35;;;7.47;;
13651;SDS011;6899;51.546;6.912;2023-02-19T15:01:58;7.22;;;6.20;;
13651;SDS011;6899;51.546;6.912;2023-02-19T15:04:34;7.72;;;6.30;;
13651;SDS011;6899;51.546;6.912;2023-02-19T15:07:23;8.98;;;6.60;;
13651;SDS011;6899;51.546;6.912;2023-02-19T15:10:05;8.63;;;6.82;;
13651;SDS011;6899;51.546;6.912;2023-02-19T15:13:57;13.88;;;6.68;;
13651;SDS011;6899;51.546;6.912;2023-02-19T15:16:16;9.10;;;6.60;;
13651;SDS011;6899;51.546;6.912;2023-02-19T15:18:46;10.75;;;6.85;;
13651;SDS011;6899;51.546;6.912;2023-02-19T15:21:27;12.00;;;7.28;;
13651;SDS011;6899;51.546;6.912;2023-02-19T15:24:01;8.25;;;6.72;;
13651;SDS011;6899;51.546;6.912;2023-02-19T15:26:35;10.18;;;8.20;;
13651;SDS011;6899;51.546;6.912;2023-02-19T15:30:27;11.25;;;8.38;;
13651;SDS011;6899;51.546;6.912;2023-02-19T15:32:14;9.88;;;7.10;;
13651;SDS011;6899;51.546;6.912;2023-02-19T15:35:16;13.38;;;6.63;;
13651;SDS011;6899;51.546;6.912;2023-02-19T15:37:44;13.07;;;7.97;;
13651;SDS011;6899;51.546;6.912;2023-02-19T15:40:28;9.75;;;6.55;;
13651;SDS011;6899;51.546;6.912;2023-02-19T15:43:18;8.48;;;6.63;;
13651;SDS011;6899;51.546;6.912;2023-02-19T15:46:08;7.40;;;6.18;;
13651;SDS011;6899;51.546;6.912;2023-02-19T15:48:55;9.85;;;6.20;;
13651;SDS011;6899;51.546;6.912;2023-02-19T15:51:31;9.10;;;6.10;;
13651;SDS011;6899;51.546;6.912;2023-02-19T15:54:27;8.10;;;5.97;;
13651;SDS011;6899;51.546;6.912;2023-02-19T15:57:13;9.13;;;5.75;;
13651;SDS011;6899;51.546;6.912;2023-02-19T15:59:58;6.78;;;5.18;;
13651;SDS011;6899;51.546;6.912;2023-02-19T16:09:15;6.70;;;5.45;;
13651;SDS011;6899;51.546;6.912;2023-02-19T16:11:47;5.93;;;4.18;;
13651;SDS011;6899;51.546;6.912;2023-02-19T16:14:27;6.60;;;4.10;;